Coral Princess — ZCDF4 — position and weather

sailwx.info

Track history (hours):
 
Tides and Currents Weather Stations Pressure Air Temp Water Temp Dewpoint Dewpoint Depression Visibility Wind Speed Wind Dir Waves Ship Positions

Coral Princess

Operator: Princess Cruises

Last reported at 2019-Sep-20 04:24 UTC. Time now 2019-Sep-21 00:28 UTC.
Position N 54°26' W 131°51'.

Type: Passenger vessel. MMSI: 310376000.

Date/timePositionNaut miles runAvg speedWind from/ knotsBaromVisibWave heightAir tempDewpointWater temp
2019-Sep-20 04:24N 54°26' W 131°51'921.9
2019-Sep-20 04:00N 54°23' W 131°37'1121.7
2019-Sep-20 03:30N 54°20' W 131°19'1020.8
2019-Sep-20 03:00N 54°15' W 131°04'1122.0
2019-Sep-20 02:30N 54°05' W 130°60'1121.9
2019-Sep-20 02:00N 53°54' W 130°56'1121.7
2019-Sep-20 01:30N 53°43' W 130°53'1121.6
2019-Sep-20 01:00N 53°33' W 130°50'1221.5
2019-Sep-20 00:28N 53°22' W 130°43'3322.7
2019-Sep-19 23:00N 52°54' W 130°12'2221.6 260 / 101018.510.8 14.513.613.0
2019-Sep-19 22:00N 52°35' W 129°55'1122.6
2019-Sep-19 21:30N 52°26' W 129°46'1122.4
2019-Sep-19 21:00N 52°16' W 129°36'1321.9
2019-Sep-19 20:25N 52°06' W 129°24'921.7
2019-Sep-19 20:00N 51°59' W 129°15'1121.9
2019-Sep-19 19:30N 51°50' W 129°03'1122.0
2019-Sep-19 19:00N 51°42' W 128°52'1121.7
2019-Sep-19 18:30N 51°33' W 128°42'1121.8
2019-Sep-19 18:00N 51°24' W 128°32'1121.7
2019-Sep-19 17:30N 51°17' W 128°19'1121.9
2019-Sep-19 17:00N 51°09' W 128°06'1121.3
2019-Sep-19 16:31N 51°02' W 127°54'714.0
2019-Sep-19 16:00N 50°57' W 127°46'918.2
2019-Sep-19 15:30N 50°52' W 127°34'1427.6
2019-Sep-19 15:00N 50°42' W 127°18'7716.7 270 / 21019.9 12.011.010.0
2019-Sep-19 10:23N 50°16' W 125°24'717.4
2019-Sep-19 10:00N 50°10' W 125°22'611.8
2019-Sep-19 09:30N 50°05' W 125°16'612.9
2019-Sep-19 09:01N 49°59' W 125°12'611.2
2019-Sep-19 08:30N 49°55' W 125°06'511.1
2019-Sep-19 08:01N 49°52' W 125°00'5 9.8
2019-Sep-19 07:30N 49°48' W 124°54'510.3
2019-Sep-19 07:00N 49°44' W 124°49'510.3
2019-Sep-19 06:30N 49°41' W 124°43'510.2
2019-Sep-19 05:59N 49°37' W 124°38'5 9.5
2019-Sep-19 05:30N 49°33' W 124°34'7 9.9
2019-Sep-19 04:50N 49°28' W 124°27'310.5
2019-Sep-19 04:30N 49°27' W 124°22'510.4
2019-Sep-19 04:00N 49°25' W 124°14'510.5
2019-Sep-19 03:31N 49°23' W 124°07'510.3
2019-Sep-19 03:01N 49°23' W 123°59'6351.6
2019-Sep-19 03:00N 49°18' W 123°54'5 9.6 290 / 101014.410.8 15.712.113.0
2019-Sep-19 02:30N 49°22' W 123°51'510.6
2019-Sep-19 02:00N 49°21' W 123°43'510.6
2019-Sep-19 01:30N 49°20' W 123°35'510.4
2019-Sep-19 01:00N 49°19' W 123°27'510.2
2019-Sep-19 00:31N 49°19' W 123°20'510.7
2019-Sep-19 00:01N 49°19' W 123°11'4 7.8
2019-Sep-18 23:31N 49°18' W 123°06'1 1.1
2019-Sep-18 23:00N 49°17' W 123°07'0 0.0
2019-Sep-18 22:30N 49°17' W 123°07'0 0.0
2019-Sep-18 21:57N 49°17' W 123°07'0 0.0
2019-Sep-18 21:30N 49°17' W 123°07'0 0.0
2019-Sep-18 21:00N 49°17' W 123°07'0 0.0
2019-Sep-18 20:30N 49°17' W 123°07'0 0.0
2019-Sep-18 19:57N 49°17' W 123°07'0 0.0
2019-Sep-18 19:29N 49°17' W 123°07'0 0.0
2019-Sep-18 18:59N 49°17' W 123°07'0 0.0
2019-Sep-18 18:29N 49°17' W 123°07'0 0.0
2019-Sep-18 17:59N 49°17' W 123°07'0 0.0
2019-Sep-18 17:29N 49°17' W 123°07'0 0.0
2019-Sep-18 16:59N 49°17' W 123°07'0 0.0
2019-Sep-18 16:29N 49°17' W 123°07'0 0.0
2019-Sep-18 15:59N 49°17' W 123°07'0 0.0
2019-Sep-18 15:29N 49°17' W 123°07'0 0.0
2019-Sep-18 14:59N 49°17' W 123°07'0 0.0
2019-Sep-18 14:29N 49°17' W 123°07'0 0.0
2019-Sep-18 14:01N 49°17' W 123°07'0 1.0
2019-Sep-18 13:30N 49°18' W 123°06'4 8.1
2019-Sep-18 13:00N 49°19' W 123°12'510.2
2019-Sep-18 12:31N 49°18' W 123°20'510.0
2019-Sep-18 12:00N 49°19' W 123°27'5 9.5
2019-Sep-18 11:30N 49°19' W 123°35'5 8.9
2019-Sep-18 11:00N 49°19' W 123°41'5 9.7
2019-Sep-18 10:30N 49°20' W 123°49'510.2
2019-Sep-18 10:00N 49°21' W 123°56'510.3
2019-Sep-18 09:31N 49°22' W 124°04'510.1
2019-Sep-18 09:00N 49°24' W 124°12'5 9.5
2019-Sep-18 08:30N 49°25' W 124°18'5 9.9
2019-Sep-18 08:00N 49°27' W 124°25'5 9.7
2019-Sep-18 07:28N 49°31' W 124°32'5 8.9
2019-Sep-18 06:58N 49°34' W 124°36'510.0
2019-Sep-18 06:30N 49°37' W 124°41'510.0
2019-Sep-18 06:00N 49°41' W 124°46'5 9.5
2019-Sep-18 05:30N 49°45' W 124°51'5 9.6
2019-Sep-18 05:01N 49°48' W 124°56'5 9.9
2019-Sep-18 04:30N 49°52' W 125°01'5 9.6
2019-Sep-18 04:00N 49°56' W 125°06'510.7
2019-Sep-18 03:31N 49°59' W 125°12'713.6
2019-Sep-18 03:00N 50°05' W 125°17'713.4
2019-Sep-18 02:30N 50°11' W 125°22'916.9
2019-Sep-18 02:00N 50°19' W 125°25'8517.6
2019-Sep-17 21:08N 50°51' W 127°30'320.2
2019-Sep-17 21:00N 50°52' W 127°34'917.8
2019-Sep-17 20:30N 50°58' W 127°45'611.1
2019-Sep-17 20:00N 51°01' W 127°52'12854.8
2019-Sep-17 20:00N 50°54' W 127°36'2142.8 130 / 201001.7 5.4 14.012.210.0
2019-Sep-17 19:30N 51°06' W 128°03'816.7
2019-Sep-17 19:00N 51°10' W 128°15'816.2
2019-Sep-17 18:30N 51°14' W 128°26'917.0
2019-Sep-17 18:01N 51°18' W 128°37'1019.4
2019-Sep-17 17:30N 51°23' W 128°51'918.9
2019-Sep-17 17:00N 51°31' W 128°60'918.7
2019-Sep-17 16:30N 51°39' W 129°08'1019.2
2019-Sep-17 16:00N 51°47' W 129°17'1019.5
2019-Sep-17 15:30N 51°55' W 129°25'1019.6
2019-Sep-17 15:00N 52°03' W 129°34'4266.7
2019-Sep-17 15:00N 52°00' W 129°30'1428.5 140 / 50997.3 5.4 13.0 9.110.0
2019-Sep-17 14:30N 52°11' W 129°43'7119.0
2019-Sep-17 10:47N 53°10' W 130°48'515.4
2019-Sep-17 10:27N 53°14' W 130°53'4 8.1
2019-Sep-17 10:00N 53°18' W 130°54'921.8 140 / 50993.9 2.2 13.0 9.110.0
2019-Sep-17 09:36N 53°25' W 131°01'114.3
2019-Sep-17 09:30N 53°27' W 131°01'714.5
2019-Sep-17 09:00N 53°34' W 131°01'715.0
2019-Sep-17 08:31N 53°42' W 131°01'815.5
2019-Sep-17 08:00N 53°49' W 131°02'816.3
2019-Sep-17 07:30N 53°57' W 131°03'917.2
2019-Sep-17 07:00N 54°06' W 131°04'917.7
2019-Sep-17 06:31N 54°15' W 131°04'917.2
2019-Sep-17 06:00N 54°23' W 131°09'917.4
2019-Sep-17 05:29N 54°31' W 131°15'816.4
2019-Sep-17 04:59N 54°39' W 131°16'918.5
2019-Sep-17 04:31N 54°48' W 131°11'918.1
2019-Sep-17 04:00N 54°57' W 131°08'3518.8
2019-Sep-17 04:00N 54°54' W 131°06'1324.5 100 / 7999.3 2.2 12.011.013.0
2019-Sep-17 03:29N 55°06' W 131°09'108 5.8
2019-Sep-16 09:00N 56°00' W 133°54'3417.2 160 / 161003.610.8 12.010.1
2019-Sep-16 07:00N 56°30' W 134°24'97 2.0 120 / 71003.810.8 12.010.1 9.0
2019-Sep-14 07:00N 58°06' W 134°54'13 8.9 010 / 81002.0 5.4 12.010.110.0
2019-Sep-14 05:32N 58°10' W 135°18'0 8.8
2019-Sep-14 05:30N 58°10' W 135°18'5 9.3
2019-Sep-14 04:59N 58°12' W 135°26'5 9.4
2019-Sep-14 04:30N 58°14' W 135°33'510.4
2019-Sep-14 04:00N 58°17' W 135°42'5312.9
2019-Sep-14 04:00N 58°12' W 135°42'917.7 060 / 51003.2 5.4 12.010.110.0
2019-Sep-14 03:30N 58°19' W 135°51'612.0
2019-Sep-14 03:00N 58°24' W 135°58'611.8
2019-Sep-14 02:30N 58°29' W 136°03'918.9
2019-Sep-14 02:00N 58°39' W 136°05'815.6
2019-Sep-14 01:30N 58°44' W 136°15'713.8
2019-Sep-14 01:00N 58°48' W 136°26'2 0.4
2019-Sep-13 19:16N 58°50' W 136°29'413.5
2019-Sep-13 19:00N 58°47' W 136°24'713.1
2019-Sep-13 18:30N 58°43' W 136°14'815.3
2019-Sep-13 18:00N 58°37' W 136°05'918.7
2019-Sep-13 17:31N 58°28' W 136°02'510.4
2019-Sep-13 17:00N 58°23' W 135°59'612.7
2019-Sep-13 16:30N 58°19' W 136°08'917.1
2019-Sep-13 16:00N 58°12' W 136°18'5911.9 040 / 10998.8 5.4 15.0 6.9
2019-Sep-13 11:00N 58°30' W 138°06'5614.1 130 / 25998.4 5.4 15.0 6.9
2019-Sep-13 07:00N 59°06' W 139°30'36 3.6 100 / 301000.0 5.4 15.013.214.0
2019-Sep-12 21:00N 59°24' W 140°30'8917.7 110 / 251005.6 5.4 14.012.215.0
2019-Sep-12 16:00N 59°30' W 143°24'8416.8 110 / 301005.7 5.4 14.512.715.0
2019-Sep-12 11:00N 60°00' W 146°00'38 1.0 110 / 301006.6 5.4 13.511.6
2019-Sep-10 21:00N 60°30' W 146°48'7715.3 090 / 251011.910.8 13.013.014.0
2019-Sep-10 16:00N 59°42' W 144°48'11819.6 070 / 221012.910.8 14.012.214.0
2019-Sep-10 10:00N 59°00' W 141°12'   290 / 251013.710.8 15.011.313.0
Track history (hours):
 
Tides and Currents Weather Stations Pressure Air Temp Water Temp Dewpoint Dewpoint Depression Visibility Wind Speed Wind Dir Waves Ship Positions

Coral Princess

Operator: Princess Cruises

Last reported at 2019-Sep-20 04:24 UTC. Time now 2019-Sep-21 00:28 UTC.
Position N 54°26' W 131°51'.

Type: Passenger vessel. MMSI: 310376000.

Date/timePositionNaut miles runAvg speedWind from/ knotsBaromVisibWave heightAir tempDewpointWater temp
2019-Sep-20 04:24N 54°26' W 131°51'921.9
2019-Sep-20 04:00N 54°23' W 131°37'1121.7
2019-Sep-20 03:30N 54°20' W 131°19'1020.8
2019-Sep-20 03:00N 54°15' W 131°04'1122.0
2019-Sep-20 02:30N 54°05' W 130°60'1121.9
2019-Sep-20 02:00N 53°54' W 130°56'1121.7
2019-Sep-20 01:30N 53°43' W 130°53'1121.6
2019-Sep-20 01:00N 53°33' W 130°50'1221.5
2019-Sep-20 00:28N 53°22' W 130°43'3322.7
2019-Sep-19 23:00N 52°54' W 130°12'2221.6 260 / 101018.510.8 14.513.613.0
2019-Sep-19 22:00N 52°35' W 129°55'1122.6
2019-Sep-19 21:30N 52°26' W 129°46'1122.4
2019-Sep-19 21:00N 52°16' W 129°36'1321.9
2019-Sep-19 20:25N 52°06' W 129°24'921.7
2019-Sep-19 20:00N 51°59' W 129°15'1121.9
2019-Sep-19 19:30N 51°50' W 129°03'1122.0
2019-Sep-19 19:00N 51°42' W 128°52'1121.7
2019-Sep-19 18:30N 51°33' W 128°42'1121.8
2019-Sep-19 18:00N 51°24' W 128°32'1121.7
2019-Sep-19 17:30N 51°17' W 128°19'1121.9
2019-Sep-19 17:00N 51°09' W 128°06'1121.3
2019-Sep-19 16:31N 51°02' W 127°54'714.0
2019-Sep-19 16:00N 50°57' W 127°46'918.2
2019-Sep-19 15:30N 50°52' W 127°34'1427.6
2019-Sep-19 15:00N 50°42' W 127°18'7716.7 270 / 21019.9 12.011.010.0
2019-Sep-19 10:23N 50°16' W 125°24'717.4
2019-Sep-19 10:00N 50°10' W 125°22'611.8
2019-Sep-19 09:30N 50°05' W 125°16'612.9
2019-Sep-19 09:01N 49°59' W 125°12'611.2
2019-Sep-19 08:30N 49°55' W 125°06'511.1
2019-Sep-19 08:01N 49°52' W 125°00'5 9.8
2019-Sep-19 07:30N 49°48' W 124°54'510.3
2019-Sep-19 07:00N 49°44' W 124°49'510.3
2019-Sep-19 06:30N 49°41' W 124°43'510.2
2019-Sep-19 05:59N 49°37' W 124°38'5 9.5
2019-Sep-19 05:30N 49°33' W 124°34'7 9.9
2019-Sep-19 04:50N 49°28' W 124°27'310.5
2019-Sep-19 04:30N 49°27' W 124°22'510.4
2019-Sep-19 04:00N 49°25' W 124°14'510.5
2019-Sep-19 03:31N 49°23' W 124°07'510.3
2019-Sep-19 03:01N 49°23' W 123°59'6351.6
2019-Sep-19 03:00N 49°18' W 123°54'5 9.6 290 / 101014.410.8 15.712.113.0
2019-Sep-19 02:30N 49°22' W 123°51'510.6
2019-Sep-19 02:00N 49°21' W 123°43'510.6
2019-Sep-19 01:30N 49°20' W 123°35'510.4
2019-Sep-19 01:00N 49°19' W 123°27'510.2
2019-Sep-19 00:31N 49°19' W 123°20'510.7
2019-Sep-19 00:01N 49°19' W 123°11'4 7.8
2019-Sep-18 23:31N 49°18' W 123°06'1 1.1
2019-Sep-18 23:00N 49°17' W 123°07'0 0.0
2019-Sep-18 22:30N 49°17' W 123°07'0 0.0
2019-Sep-18 21:57N 49°17' W 123°07'0 0.0
2019-Sep-18 21:30N 49°17' W 123°07'0 0.0
2019-Sep-18 21:00N 49°17' W 123°07'0 0.0
2019-Sep-18 20:30N 49°17' W 123°07'0 0.0
2019-Sep-18 19:57N 49°17' W 123°07'0 0.0
2019-Sep-18 19:29N 49°17' W 123°07'0 0.0
2019-Sep-18 18:59N 49°17' W 123°07'0 0.0
2019-Sep-18 18:29N 49°17' W 123°07'0 0.0
2019-Sep-18 17:59N 49°17' W 123°07'0 0.0
2019-Sep-18 17:29N 49°17' W 123°07'0 0.0
2019-Sep-18 16:59N 49°17' W 123°07'0 0.0
2019-Sep-18 16:29N 49°17' W 123°07'0 0.0
2019-Sep-18 15:59N 49°17' W 123°07'0 0.0
2019-Sep-18 15:29N 49°17' W 123°07'0 0.0
2019-Sep-18 14:59N 49°17' W 123°07'0 0.0
2019-Sep-18 14:29N 49°17' W 123°07'0 0.0
2019-Sep-18 14:01N 49°17' W 123°07'0 1.0
2019-Sep-18 13:30N 49°18' W 123°06'4 8.1
2019-Sep-18 13:00N 49°19' W 123°12'510.2
2019-Sep-18 12:31N 49°18' W 123°20'510.0
2019-Sep-18 12:00N 49°19' W 123°27'5 9.5
2019-Sep-18 11:30N 49°19' W 123°35'5 8.9
2019-Sep-18 11:00N 49°19' W 123°41'5 9.7
2019-Sep-18 10:30N 49°20' W 123°49'510.2
2019-Sep-18 10:00N 49°21' W 123°56'510.3
2019-Sep-18 09:31N 49°22' W 124°04'510.1
2019-Sep-18 09:00N 49°24' W 124°12'5 9.5
2019-Sep-18 08:30N 49°25' W 124°18'5 9.9
2019-Sep-18 08:00N 49°27' W 124°25'5 9.7
2019-Sep-18 07:28N 49°31' W 124°32'5 8.9
2019-Sep-18 06:58N 49°34' W 124°36'510.0
2019-Sep-18 06:30N 49°37' W 124°41'510.0
2019-Sep-18 06:00N 49°41' W 124°46'5 9.5
2019-Sep-18 05:30N 49°45' W 124°51'5 9.6
2019-Sep-18 05:01N 49°48' W 124°56'5 9.9
2019-Sep-18 04:30N 49°52' W 125°01'5 9.6
2019-Sep-18 04:00N 49°56' W 125°06'510.7
2019-Sep-18 03:31N 49°59' W 125°12'713.6
2019-Sep-18 03:00N 50°05' W 125°17'713.4
2019-Sep-18 02:30N 50°11' W 125°22'916.9
2019-Sep-18 02:00N 50°19' W 125°25'8517.6
2019-Sep-17 21:08N 50°51' W 127°30'320.2
2019-Sep-17 21:00N 50°52' W 127°34'917.8
2019-Sep-17 20:30N 50°58' W 127°45'611.1
2019-Sep-17 20:00N 51°01' W 127°52'12854.8
2019-Sep-17 20:00N 50°54' W 127°36'2142.8 130 / 201001.7 5.4 14.012.210.0
2019-Sep-17 19:30N 51°06' W 128°03'816.7
2019-Sep-17 19:00N 51°10' W 128°15'816.2
2019-Sep-17 18:30N 51°14' W 128°26'917.0
2019-Sep-17 18:01N 51°18' W 128°37'1019.4
2019-Sep-17 17:30N 51°23' W 128°51'918.9
2019-Sep-17 17:00N 51°31' W 128°60'918.7
2019-Sep-17 16:30N 51°39' W 129°08'1019.2
2019-Sep-17 16:00N 51°47' W 129°17'1019.5
2019-Sep-17 15:30N 51°55' W 129°25'1019.6
2019-Sep-17 15:00N 52°03' W 129°34'4266.7
2019-Sep-17 15:00N 52°00' W 129°30'1428.5 140 / 50997.3 5.4 13.0 9.110.0
2019-Sep-17 14:30N 52°11' W 129°43'7119.0
2019-Sep-17 10:47N 53°10' W 130°48'515.4
2019-Sep-17 10:27N 53°14' W 130°53'4 8.1
2019-Sep-17 10:00N 53°18' W 130°54'921.8 140 / 50993.9 2.2 13.0 9.110.0
2019-Sep-17 09:36N 53°25' W 131°01'114.3
2019-Sep-17 09:30N 53°27' W 131°01'714.5
2019-Sep-17 09:00N 53°34' W 131°01'715.0
2019-Sep-17 08:31N 53°42' W 131°01'815.5
2019-Sep-17 08:00N 53°49' W 131°02'816.3
2019-Sep-17 07:30N 53°57' W 131°03'917.2
2019-Sep-17 07:00N 54°06' W 131°04'917.7
2019-Sep-17 06:31N 54°15' W 131°04'917.2
2019-Sep-17 06:00N 54°23' W 131°09'917.4
2019-Sep-17 05:29N 54°31' W 131°15'816.4
2019-Sep-17 04:59N 54°39' W 131°16'918.5
2019-Sep-17 04:31N 54°48' W 131°11'918.1
2019-Sep-17 04:00N 54°57' W 131°08'3518.8
2019-Sep-17 04:00N 54°54' W 131°06'1324.5 100 / 7999.3 2.2 12.011.013.0
2019-Sep-17 03:29N 55°06' W 131°09'108 5.8
2019-Sep-16 09:00N 56°00' W 133°54'3417.2 160 / 161003.610.8 12.010.1
2019-Sep-16 07:00N 56°30' W 134°24'97 2.0 120 / 71003.810.8 12.010.1 9.0
2019-Sep-14 07:00N 58°06' W 134°54'13 8.9 010 / 81002.0 5.4 12.010.110.0
2019-Sep-14 05:32N 58°10' W 135°18'0 8.8
2019-Sep-14 05:30N 58°10' W 135°18'5 9.3
2019-Sep-14 04:59N 58°12' W 135°26'5 9.4
2019-Sep-14 04:30N 58°14' W 135°33'510.4
2019-Sep-14 04:00N 58°17' W 135°42'5312.9
2019-Sep-14 04:00N 58°12' W 135°42'917.7 060 / 51003.2 5.4 12.010.110.0
2019-Sep-14 03:30N 58°19' W 135°51'612.0
2019-Sep-14 03:00N 58°24' W 135°58'611.8
2019-Sep-14 02:30N 58°29' W 136°03'918.9
2019-Sep-14 02:00N 58°39' W 136°05'815.6
2019-Sep-14 01:30N 58°44' W 136°15'713.8
2019-Sep-14 01:00N 58°48' W 136°26'2 0.4
2019-Sep-13 19:16N 58°50' W 136°29'413.5
2019-Sep-13 19:00N 58°47' W 136°24'713.1
2019-Sep-13 18:30N 58°43' W 136°14'815.3
2019-Sep-13 18:00N 58°37' W 136°05'918.7
2019-Sep-13 17:31N 58°28' W 136°02'510.4
2019-Sep-13 17:00N 58°23' W 135°59'612.7
2019-Sep-13 16:30N 58°19' W 136°08'917.1
2019-Sep-13 16:00N 58°12' W 136°18'5911.9 040 / 10998.8 5.4 15.0 6.9
2019-Sep-13 11:00N 58°30' W 138°06'5614.1 130 / 25998.4 5.4 15.0 6.9
2019-Sep-13 07:00N 59°06' W 139°30'36 3.6 100 / 301000.0 5.4 15.013.214.0
2019-Sep-12 21:00N 59°24' W 140°30'8917.7 110 / 251005.6 5.4 14.012.215.0
2019-Sep-12 16:00N 59°30' W 143°24'8416.8 110 / 301005.7 5.4 14.512.715.0
2019-Sep-12 11:00N 60°00' W 146°00'38 1.0 110 / 301006.6 5.4 13.511.6
2019-Sep-10 21:00N 60°30' W 146°48'7715.3 090 / 251011.910.8 13.013.014.0
2019-Sep-10 16:00N 59°42' W 144°48'11819.6 070 / 221012.910.8 14.012.214.0
2019-Sep-10 10:00N 59°00' W 141°12'   290 / 251013.710.8 15.011.313.0

Dump ship's entire track history